createdAt,value
2023-04-18T00:01:56.405Z,10.16
2023-04-18T00:04:23.657Z,10.18
2023-04-18T00:06:51.328Z,10.08
2023-04-18T00:09:18.402Z,10.04
2023-04-18T00:11:45.554Z,10.07
2023-04-18T00:14:13.682Z,10.03
2023-04-18T00:16:40.932Z,9.90
2023-04-18T00:19:08.766Z,10.05
2023-04-18T00:21:37.263Z,9.95
2023-04-18T00:24:04.486Z,9.87
2023-04-18T00:26:31.538Z,9.90
2023-04-18T00:28:58.508Z,9.84
2023-04-18T00:31:25.679Z,9.85
2023-04-18T00:33:52.832Z,9.72
2023-04-18T00:36:19.814Z,9.75
2023-04-18T00:38:46.774Z,9.72
2023-04-18T00:41:13.781Z,9.68
2023-04-18T00:43:40.775Z,9.60
2023-04-18T00:46:07.809Z,9.58
2023-04-18T00:48:34.921Z,9.54
2023-04-18T00:51:02.049Z,9.56
2023-04-18T00:53:30.200Z,9.49
2023-04-18T00:55:57.669Z,9.50
2023-04-18T00:58:24.999Z,9.45
2023-04-18T01:00:52.253Z,9.42
2023-04-18T01:03:19.996Z,9.44
2023-04-18T01:05:47.227Z,9.38
2023-04-18T01:08:14.764Z,9.33
2023-04-18T01:10:42.331Z,9.40
2023-04-18T01:13:17.835Z,9.36
2023-04-18T01:15:49.861Z,9.35
2023-04-18T01:18:17.928Z,9.39
2023-04-18T01:20:50.283Z,9.29
2023-04-18T01:23:19.260Z,9.34
2023-04-18T01:25:49.369Z,9.27
2023-04-18T01:28:16.550Z,9.21
2023-04-18T01:30:43.598Z,9.24
2023-04-18T01:33:11.039Z,9.24
2023-04-18T01:35:38.124Z,9.17
2023-04-18T01:38:05.125Z,9.07
2023-04-18T01:40:32.188Z,9.08
2023-04-18T01:42:59.198Z,9.09
2023-04-18T01:45:26.186Z,9.01
2023-04-18T01:47:53.162Z,9.02
2023-04-18T01:50:20.304Z,9.07
2023-04-18T01:52:47.362Z,8.98
2023-04-18T01:55:14.352Z,9.05
2023-04-18T01:57:41.532Z,8.97
2023-04-18T02:00:09.281Z,8.97
2023-04-18T02:02:36.437Z,8.90
2023-04-18T02:05:03.595Z,8.88
2023-04-18T02:07:30.576Z,8.87
2023-04-18T02:09:57.566Z,8.81
2023-04-18T02:12:24.586Z,8.81
2023-04-18T02:14:56.355Z,8.76
2023-04-18T02:17:23.996Z,8.72
2023-04-18T02:19:51.736Z,8.66
2023-04-18T02:22:18.893Z,8.69
2023-04-18T02:24:46.065Z,8.65
2023-04-18T02:27:13.085Z,8.64
2023-04-18T02:29:40.097Z,8.61
2023-04-18T02:32:07.423Z,8.58
2023-04-18T02:34:34.672Z,8.49
2023-04-18T02:37:01.640Z,8.47
2023-04-18T02:39:28.671Z,8.49
2023-04-18T02:41:55.620Z,8.49
2023-04-18T02:44:22.567Z,8.46
2023-04-18T02:46:49.567Z,8.47
2023-04-18T02:49:16.512Z,8.41
2023-04-18T02:51:43.467Z,8.34
2023-04-18T02:54:10.458Z,8.40
2023-04-18T02:56:40.069Z,8.40
2023-04-18T02:59:07.639Z,8.30
2023-04-18T03:01:34.812Z,8.26
2023-04-18T03:04:01.891Z,8.20
2023-04-18T03:06:28.899Z,8.12
2023-04-18T03:08:56.036Z,8.06
2023-04-18T03:11:23.022Z,8.00
2023-04-18T03:13:50.022Z,7.95
2023-04-18T03:16:17.683Z,8.01
2023-04-18T03:18:44.706Z,8.01
2023-04-18T03:21:11.852Z,8.01
2023-04-18T03:23:39.082Z,7.89
2023-04-18T03:26:08.090Z,7.91
2023-04-18T03:28:35.137Z,7.83
2023-04-18T03:31:02.254Z,7.79
2023-04-18T03:33:29.368Z,7.80
2023-04-18T03:35:56.344Z,7.88
2023-04-18T03:38:23.337Z,7.79
2023-04-18T03:40:50.413Z,7.63
2023-04-18T03:43:18.728Z,7.67
2023-04-18T03:45:47.493Z,7.62
2023-04-18T03:48:14.932Z,7.56
2023-04-18T03:50:42.058Z,7.51
2023-04-18T03:53:09.114Z,7.49
2023-04-18T03:55:36.146Z,7.51
2023-04-18T03:58:03.131Z,7.44
2023-04-18T04:00:30.302Z,7.51
2023-04-18T04:02:57.620Z,7.42
2023-04-18T04:05:24.887Z,7.47
2023-04-18T04:07:51.906Z,7.38
2023-04-18T04:10:19.014Z,7.37
2023-04-18T04:12:46.926Z,7.34
2023-04-18T04:15:13.933Z,7.29
2023-04-18T04:17:41.028Z,7.31
2023-04-18T04:20:09.345Z,7.32
2023-04-18T04:22:36.842Z,7.31
2023-04-18T04:25:05.212Z,7.20
2023-04-18T04:27:34.098Z,7.26
2023-04-18T04:30:05.256Z,7.19
2023-04-18T04:32:33.126Z,7.06
2023-04-18T04:35:00.662Z,7.09
2023-04-18T04:37:28.196Z,7.07
2023-04-18T04:39:56.611Z,7.08
2023-04-18T04:42:25.212Z,7.12
2023-04-18T04:44:53.717Z,6.99
2023-04-18T04:47:20.880Z,7.00
2023-04-18T04:49:47.823Z,7.02
2023-04-18T04:52:14.786Z,7.01
2023-04-18T04:54:41.872Z,7.02
2023-04-18T04:57:08.845Z,6.92
2023-04-18T04:59:36.227Z,6.94
2023-04-18T05:02:03.457Z,6.92
2023-04-18T05:04:30.829Z,6.95
2023-04-18T05:06:58.175Z,7.00
2023-04-18T05:09:26.152Z,6.99
2023-04-18T05:11:53.122Z,6.94
2023-04-18T05:14:20.818Z,6.99
2023-04-18T05:16:47.952Z,6.90
2023-04-18T05:19:14.981Z,6.90
2023-04-18T05:21:41.938Z,6.92
2023-04-18T05:24:09.113Z,6.94
2023-04-18T05:26:36.296Z,6.99
2023-04-18T05:29:03.510Z,7.02
2023-04-18T05:31:30.964Z,7.00
2023-04-18T05:33:58.003Z,7.07
2023-04-18T05:36:25.079Z,7.02
2023-04-18T05:38:52.061Z,7.09
2023-04-18T05:41:19.020Z,7.08
2023-04-18T05:43:51.146Z,7.14
2023-04-18T05:46:29.379Z,9.30
2023-04-18T05:48:57.025Z,11.21
2023-04-18T05:51:23.997Z,12.33
2023-04-18T05:53:51.155Z,13.04
2023-04-18T05:56:18.125Z,13.42
2023-04-18T05:58:46.778Z,13.73
2023-04-18T06:01:18.568Z,13.90
2023-04-18T06:03:45.799Z,14.10
2023-04-18T06:06:13.242Z,14.17
2023-04-18T06:08:40.617Z,14.26
2023-04-18T06:11:09.016Z,14.35
2023-04-18T06:13:37.219Z,14.47
2023-04-18T06:16:05.032Z,14.51
2023-04-18T06:18:32.085Z,14.51
2023-04-18T06:20:59.065Z,14.61
2023-04-18T06:23:26.052Z,14.72
2023-04-18T06:25:53.106Z,14.73
2023-04-18T06:28:20.081Z,14.77
2023-04-18T06:30:47.045Z,14.81
2023-04-18T06:33:14.012Z,14.84
2023-04-18T06:35:41.333Z,14.99
2023-04-18T06:38:08.899Z,14.96
2023-04-18T06:40:36.044Z,15.02
2023-04-18T06:43:03.125Z,15.06
2023-04-18T06:45:33.127Z,15.08
2023-04-18T06:48:02.600Z,15.13
2023-04-18T06:50:30.232Z,15.09
2023-04-18T06:52:57.300Z,15.14
2023-04-18T06:55:24.272Z,15.19
2023-04-18T06:57:51.344Z,15.23
2023-04-18T07:00:18.600Z,15.30
2023-04-18T07:02:45.731Z,15.23
2023-04-18T07:05:12.843Z,15.25
2023-04-18T07:07:39.844Z,15.33
2023-04-18T07:10:09.614Z,15.38
2023-04-18T07:12:36.665Z,15.32
2023-04-18T07:15:04.724Z,15.37
2023-04-18T07:17:32.069Z,15.36
2023-04-18T07:19:59.519Z,15.39
2023-04-18T07:22:26.521Z,15.36
2023-04-18T07:24:53.539Z,15.39
2023-04-18T07:27:20.629Z,15.47
2023-04-18T07:29:47.616Z,15.46
2023-04-18T07:32:14.604Z,15.48
2023-04-18T07:34:41.704Z,15.55
2023-04-18T07:37:08.799Z,15.49
2023-04-18T07:39:36.230Z,15.54
2023-04-18T07:42:06.491Z,15.48
2023-04-18T07:44:35.833Z,15.54
2023-04-18T07:47:03.385Z,15.51
2023-04-18T07:49:30.343Z,15.52
2023-04-18T07:51:57.800Z,15.61
2023-04-18T07:54:24.757Z,15.58
2023-04-18T07:56:51.671Z,15.64
2023-04-18T07:59:19.289Z,15.63
2023-04-18T08:01:46.313Z,15.59
2023-04-18T08:04:14.774Z,15.67
2023-04-18T08:06:42.051Z,15.62
2023-04-18T08:09:09.168Z,15.57
2023-04-18T08:11:36.241Z,15.63
2023-04-18T08:14:03.372Z,15.61
2023-04-18T08:16:30.596Z,15.59
2023-04-18T08:18:57.602Z,15.63
2023-04-18T08:21:24.663Z,15.70
2023-04-18T08:23:51.616Z,15.67
2023-04-18T08:26:19.640Z,15.63
2023-04-18T08:28:46.804Z,15.68
2023-04-18T08:31:16.404Z,15.69
2023-04-18T08:33:43.624Z,15.68
2023-04-18T08:36:12.093Z,15.68
2023-04-18T08:38:39.111Z,15.72
2023-04-18T08:41:06.141Z,15.71
2023-04-18T08:43:33.202Z,15.75
2023-04-18T08:46:00.919Z,15.72
2023-04-18T08:48:28.439Z,15.77
2023-04-18T08:50:59.369Z,15.75
2023-04-18T08:53:27.488Z,15.76
2023-04-18T08:55:57.315Z,15.73
2023-04-18T08:58:27.391Z,15.75
2023-04-18T09:00:55.416Z,15.76
2023-04-18T09:03:43.220Z,15.71
2023-04-18T09:06:19.366Z,15.71
2023-04-18T09:08:59.354Z,15.72
2023-04-18T09:11:29.283Z,15.75
2023-04-18T09:13:58.894Z,15.79
2023-04-18T09:16:27.821Z,15.78
2023-04-18T09:19:18.602Z,15.81
2023-04-18T09:21:48.886Z,15.82
2023-04-18T09:24:21.213Z,15.83
2023-04-18T09:26:49.867Z,15.82
2023-04-18T09:29:18.694Z,15.80
2023-04-18T09:32:02.528Z,15.81
2023-04-18T09:34:29.891Z,15.84
2023-04-18T09:37:14.973Z,15.82
2023-04-18T09:39:44.546Z,15.82
2023-04-18T09:42:12.537Z,15.77
2023-04-18T09:45:06.298Z,15.83
2023-04-18T09:47:36.444Z,15.81
2023-04-18T09:50:06.988Z,15.82
2023-04-18T09:52:42.723Z,15.83
2023-04-18T09:55:16.331Z,15.82
2023-04-18T09:57:47.465Z,15.85
2023-04-18T10:00:27.200Z,15.87
2023-04-18T10:03:08.156Z,15.87
2023-04-18T10:05:38.797Z,15.88
2023-04-18T10:08:07.363Z,15.87
2023-04-18T10:10:34.543Z,15.87
2023-04-18T10:13:05.472Z,15.84
2023-04-18T10:15:32.973Z,15.84
2023-04-18T10:18:11.118Z,15.85
2023-04-18T10:20:41.497Z,15.88
2023-04-18T10:23:36.177Z,15.91
2023-04-18T10:26:08.585Z,15.91
2023-04-18T10:28:57.161Z,15.90
2023-04-18T10:31:29.343Z,15.92
2023-04-18T10:34:05.361Z,15.95
2023-04-18T10:36:33.392Z,15.98
2023-04-18T10:39:21.414Z,16.01
2023-04-18T10:41:51.937Z,16.03
2023-04-18T10:44:22.887Z,16.04
2023-04-18T10:46:53.095Z,16.02
2023-04-18T10:49:30.253Z,16.01
2023-04-18T10:52:02.201Z,16.00
2023-04-18T10:54:51.609Z,15.99
2023-04-18T10:57:18.600Z,15.98
2023-04-18T10:59:51.070Z,15.97
2023-04-18T11:02:30.178Z,15.96
2023-04-18T11:05:02.918Z,15.97
2023-04-18T11:07:34.452Z,15.99
2023-04-18T11:10:02.214Z,16.01
2023-04-18T11:12:36.350Z,16.06
2023-04-18T11:15:11.900Z,16.05
2023-04-18T11:17:40.252Z,16.04
2023-04-18T11:20:14.186Z,16.03
2023-04-18T11:22:50.344Z,16.03
2023-04-18T11:25:22.203Z,16.03
2023-04-18T11:27:51.681Z,16.03
2023-04-18T11:30:19.024Z,16.03
2023-04-18T11:32:46.149Z,16.02
2023-04-18T11:35:15.477Z,16.05
2023-04-18T11:37:45.458Z,16.05
2023-04-18T11:40:14.158Z,16.09
2023-04-18T11:42:42.391Z,16.11
2023-04-18T11:45:14.699Z,16.10
2023-04-18T11:47:43.477Z,16.12
2023-04-18T11:50:13.248Z,16.13
2023-04-18T11:52:42.487Z,16.12
2023-04-18T11:55:21.259Z,16.13
2023-04-18T11:57:57.596Z,16.12
2023-04-18T12:00:37.596Z,16.13
2023-04-18T12:03:16.300Z,16.14
2023-04-18T12:05:45.598Z,16.14
2023-04-18T12:08:20.438Z,16.15
2023-04-18T12:10:53.421Z,16.16
2023-04-18T12:13:32.388Z,16.18
2023-04-18T12:16:02.670Z,16.18
2023-04-18T12:18:30.007Z,16.17
2023-04-18T12:20:58.628Z,16.16
2023-04-18T12:23:40.217Z,16.15
2023-04-18T12:26:22.504Z,16.16
2023-04-18T12:28:54.043Z,16.17
2023-04-18T12:31:22.421Z,16.18
2023-04-18T12:33:50.568Z,16.18
2023-04-18T12:36:17.869Z,16.18
2023-04-18T12:38:45.740Z,16.20
2023-04-18T12:41:12.781Z,16.19
2023-04-18T12:43:39.748Z,16.18
2023-04-18T12:46:06.813Z,16.20
2023-04-18T12:48:33.782Z,16.21
2023-04-18T12:51:00.856Z,16.21
2023-04-18T12:53:27.836Z,16.20
2023-04-18T12:55:54.880Z,16.21
2023-04-18T12:58:21.882Z,16.22
2023-04-18T13:00:49.017Z,16.23
2023-04-18T13:03:16.304Z,16.24
2023-04-18T13:05:43.598Z,16.24
2023-04-18T13:08:16.959Z,16.23
2023-04-18T13:10:46.360Z,16.23
2023-04-18T13:13:13.573Z,16.25
2023-04-18T13:15:41.210Z,16.26
2023-04-18T13:18:08.535Z,16.28
2023-04-18T13:20:36.661Z,16.29
2023-04-18T13:23:03.937Z,16.29
2023-04-18T13:25:31.354Z,16.29
2023-04-18T13:28:01.409Z,16.28
2023-04-18T13:30:28.583Z,16.28
2023-04-18T13:32:55.593Z,16.28
2023-04-18T13:35:22.597Z,16.29
2023-04-18T13:37:49.631Z,16.32
2023-04-18T13:40:16.650Z,16.34
2023-04-18T13:42:43.794Z,16.32
2023-04-18T13:45:11.168Z,16.33
2023-04-18T13:47:38.372Z,16.31
2023-04-18T13:50:06.413Z,16.34
2023-04-18T13:52:33.668Z,16.34
2023-04-18T13:55:01.116Z,16.35
2023-04-18T13:57:28.461Z,16.37
2023-04-18T13:59:55.618Z,16.36
2023-04-18T14:02:22.908Z,16.37
2023-04-18T14:04:50.053Z,16.37
2023-04-18T14:07:17.730Z,16.37
2023-04-18T14:09:44.731Z,16.41
2023-04-18T14:12:11.794Z,16.42
2023-04-18T14:14:38.876Z,16.39
2023-04-18T14:17:06.551Z,16.41
2023-04-18T14:19:34.838Z,16.42
2023-04-18T14:22:01.843Z,16.41
2023-04-18T14:24:28.847Z,16.43
2023-04-18T14:26:55.921Z,16.43
2023-04-18T14:29:22.917Z,16.47
2023-04-18T14:31:50.347Z,16.46
2023-04-18T14:34:17.341Z,16.46
2023-04-18T14:36:44.343Z,16.46
2023-04-18T14:39:11.577Z,16.46
2023-04-18T14:41:38.714Z,16.46
2023-04-18T14:44:05.833Z,16.48
2023-04-18T14:46:32.856Z,16.50
2023-04-18T14:49:00.561Z,16.50
2023-04-18T14:51:27.748Z,16.52
2023-04-18T14:53:55.568Z,16.52
2023-04-18T14:56:24.262Z,16.53
2023-04-18T14:58:51.330Z,16.53
2023-04-18T15:01:18.609Z,16.21
2023-04-18T15:03:45.930Z,15.79
2023-04-18T15:06:13.321Z,15.80
2023-04-18T15:08:40.664Z,15.96
2023-04-18T15:11:08.250Z,15.84
2023-04-18T15:13:35.762Z,15.89
2023-04-18T15:16:03.114Z,15.89
2023-04-18T15:18:30.322Z,15.96
2023-04-18T15:21:00.897Z,15.93
2023-04-18T15:23:28.373Z,15.86
2023-04-18T15:25:56.258Z,15.76
2023-04-18T15:28:23.403Z,15.75
2023-04-18T15:30:50.605Z,15.70
2023-04-18T15:33:19.149Z,15.66
2023-04-18T15:35:47.724Z,15.61
2023-04-18T15:38:14.780Z,15.54
2023-04-18T15:40:43.470Z,15.71
2023-04-18T15:43:10.664Z,15.63
2023-04-18T15:45:37.642Z,15.88
2023-04-18T15:48:04.999Z,15.90
2023-04-18T15:50:33.618Z,15.97
2023-04-18T15:53:00.846Z,16.20
2023-04-18T15:55:27.875Z,16.13
2023-04-18T15:57:56.035Z,16.08
2023-04-18T16:00:23.954Z,16.17
2023-04-18T16:02:51.303Z,16.14
2023-04-18T16:05:19.025Z,16.26
2023-04-18T16:07:46.175Z,16.23
2023-04-18T16:10:15.181Z,16.09
2023-04-18T16:12:42.445Z,16.14
2023-04-18T16:15:10.581Z,16.08
2023-04-18T16:17:38.498Z,16.28
2023-04-18T16:20:08.224Z,16.21
2023-04-18T16:22:35.767Z,16.28
2023-04-18T16:25:03.692Z,16.14
2023-04-18T16:27:32.542Z,16.13
2023-04-18T16:29:59.520Z,16.15
2023-04-18T16:32:26.584Z,16.16
2023-04-18T16:34:53.604Z,16.25
2023-04-18T16:37:20.809Z,16.24
2023-04-18T16:39:47.828Z,16.20
2023-04-18T16:42:15.889Z,16.20
2023-04-18T16:44:44.824Z,16.35
2023-04-18T16:47:11.817Z,16.42
2023-04-18T16:49:38.975Z,16.30
2023-04-18T16:52:06.004Z,16.29
2023-04-18T16:54:36.871Z,16.25
2023-04-18T16:57:04.853Z,16.21
2023-04-18T16:59:32.148Z,16.24
2023-04-18T17:02:00.010Z,16.14
2023-04-18T17:04:27.549Z,16.10
2023-04-18T17:06:58.011Z,16.18
2023-04-18T17:09:25.377Z,16.10
2023-04-18T17:11:52.365Z,15.96
2023-04-18T17:14:19.426Z,15.88
2023-04-18T17:16:46.549Z,15.94
2023-04-18T17:19:13.951Z,15.99
2023-04-18T17:21:41.347Z,15.85
2023-04-18T17:24:09.244Z,15.85
2023-04-18T17:26:38.638Z,15.91
2023-04-18T17:29:05.761Z,15.93
2023-04-18T17:31:33.237Z,16.03
2023-04-18T17:34:00.721Z,15.87
2023-04-18T17:36:27.849Z,15.82
2023-04-18T17:38:55.507Z,15.72
2023-04-18T17:41:22.719Z,15.61
2023-04-18T17:43:51.043Z,15.58
2023-04-18T17:46:18.333Z,15.48
2023-04-18T17:48:45.451Z,15.37
2023-04-18T17:51:12.601Z,15.33
2023-04-18T17:53:39.693Z,15.39
2023-04-18T17:56:06.795Z,15.30
2023-04-18T17:58:33.761Z,15.27
2023-04-18T18:01:01.308Z,15.17
2023-04-18T18:03:28.630Z,15.08
2023-04-18T18:05:55.873Z,15.06
2023-04-18T18:08:25.033Z,14.97
2023-04-18T18:10:52.094Z,15.00
2023-04-18T18:13:19.069Z,14.93
2023-04-18T18:15:46.122Z,14.86
2023-04-18T18:18:13.186Z,14.77
2023-04-18T18:20:43.243Z,14.78
2023-04-18T18:23:10.331Z,14.68
2023-04-18T18:25:37.831Z,14.62
2023-04-18T18:28:04.978Z,14.57
2023-04-18T18:30:31.983Z,14.47
2023-04-18T18:32:59.392Z,14.36
2023-04-18T18:35:26.452Z,14.44
2023-04-18T18:37:53.437Z,14.31
2023-04-18T18:40:20.832Z,14.25
2023-04-18T18:42:51.280Z,14.17
2023-04-18T18:45:21.179Z,14.16
2023-04-18T18:47:48.827Z,14.05
2023-04-18T18:50:15.993Z,13.98
2023-04-18T18:52:43.313Z,13.88
2023-04-18T18:55:11.293Z,13.84
2023-04-18T18:57:38.307Z,13.75
2023-04-18T19:00:11.015Z,13.71
2023-04-18T19:02:39.185Z,13.63
2023-04-18T19:05:07.097Z,13.57
2023-04-18T19:07:34.113Z,13.53
2023-04-18T19:10:01.926Z,13.44
2023-04-18T19:12:29.275Z,13.38
2023-04-18T19:14:56.419Z,13.32
2023-04-18T19:17:24.853Z,13.19
2023-04-18T19:19:53.076Z,13.17
2023-04-18T19:22:20.046Z,13.11
2023-04-18T19:24:47.494Z,13.00
2023-04-18T19:27:14.536Z,12.86
2023-04-18T19:29:41.570Z,12.88
2023-04-18T19:32:08.695Z,12.92
2023-04-18T19:34:35.859Z,12.85
2023-04-18T19:37:03.605Z,12.75
2023-04-18T19:39:30.584Z,12.74
2023-04-18T19:41:57.579Z,12.71
2023-04-18T19:44:24.683Z,12.71
2023-04-18T19:46:51.683Z,12.58
2023-04-18T19:49:18.738Z,12.59
2023-04-18T19:51:45.764Z,12.57
2023-04-18T19:54:13.341Z,12.53
2023-04-18T19:56:40.386Z,12.54
2023-04-18T19:59:07.531Z,12.49
2023-04-18T20:01:34.603Z,12.40
2023-04-18T20:04:02.089Z,12.44
2023-04-18T20:06:31.013Z,12.35
2023-04-18T20:08:58.067Z,12.30
2023-04-18T20:11:25.030Z,12.25
2023-04-18T20:13:54.457Z,12.14
2023-04-18T20:16:22.134Z,12.05
2023-04-18T20:18:50.047Z,11.95
2023-04-18T20:21:17.082Z,11.84
2023-04-18T20:23:45.272Z,11.86
2023-04-18T20:26:12.312Z,11.81
2023-04-18T20:28:39.520Z,11.85
2023-04-18T20:31:07.146Z,11.80
2023-04-18T20:33:34.611Z,11.76
2023-04-18T20:36:01.618Z,11.74
2023-04-18T20:38:29.435Z,11.76
2023-04-18T20:40:58.840Z,11.75
2023-04-18T20:43:26.145Z,11.80
2023-04-18T20:45:54.469Z,11.75
2023-04-18T20:48:21.681Z,11.71
2023-04-18T20:50:51.889Z,11.71
2023-04-18T20:53:25.115Z,11.66
2023-04-18T20:55:52.081Z,11.68
2023-04-18T20:58:19.089Z,11.57
2023-04-18T21:00:46.271Z,11.66
2023-04-18T21:03:14.164Z,11.55
2023-04-18T21:05:41.353Z,11.62
2023-04-18T21:08:08.295Z,11.60
2023-04-18T21:10:35.312Z,11.59
2023-04-18T21:13:02.313Z,11.59
2023-04-18T21:15:29.517Z,11.49
2023-04-18T21:17:56.644Z,11.50
2023-04-18T21:20:23.935Z,11.46
2023-04-18T21:22:51.008Z,11.44
2023-04-18T21:25:19.529Z,11.46
2023-04-18T21:27:46.580Z,11.39
2023-04-18T21:30:13.762Z,11.44
2023-04-18T21:32:40.754Z,11.37
2023-04-18T21:35:08.478Z,11.39
2023-04-18T21:37:35.488Z,11.34
2023-04-18T21:40:02.545Z,11.31
2023-04-18T21:42:29.513Z,11.26
2023-04-18T21:44:56.475Z,11.25
2023-04-18T21:47:23.480Z,11.20
2023-04-18T21:49:50.717Z,11.18
2023-04-18T21:52:17.772Z,11.16
2023-04-18T21:54:44.787Z,11.20
2023-04-18T21:57:11.883Z,11.12
2023-04-18T21:59:38.916Z,11.15
2023-04-18T22:02:06.033Z,11.09
2023-04-18T22:04:33.854Z,11.10
2023-04-18T22:07:00.924Z,11.05
2023-04-18T22:09:28.600Z,11.10
2023-04-18T22:11:56.968Z,11.09
2023-04-18T22:14:24.902Z,11.08
2023-04-18T22:16:52.030Z,11.04
2023-04-18T22:19:19.413Z,11.06
2023-04-18T22:21:46.586Z,11.02
2023-04-18T22:24:13.692Z,11.06
2023-04-18T22:26:41.042Z,11.04
2023-04-18T22:29:08.066Z,11.01
2023-04-18T22:31:35.101Z,11.00
2023-04-18T22:34:02.184Z,10.98
2023-04-18T22:36:29.129Z,10.97
2023-04-18T22:38:56.152Z,10.96
2023-04-18T22:41:23.292Z,10.89
2023-04-18T22:43:50.476Z,10.98
2023-04-18T22:46:17.581Z,10.98
2023-04-18T22:48:46.180Z,10.91
2023-04-18T22:51:14.799Z,10.89
2023-04-18T22:53:41.745Z,10.89
2023-04-18T22:56:08.697Z,10.89
2023-04-18T22:58:35.743Z,10.82
2023-04-18T23:01:02.777Z,10.83
2023-04-18T23:03:34.330Z,10.81
2023-04-18T23:06:01.644Z,10.82
2023-04-18T23:08:28.949Z,10.78
2023-04-18T23:10:55.921Z,10.69
2023-04-18T23:13:22.923Z,10.74
2023-04-18T23:15:50.045Z,10.74
2023-04-18T23:18:17.072Z,10.68
2023-04-18T23:20:44.101Z,10.62
2023-04-18T23:23:11.196Z,10.62
2023-04-18T23:25:38.376Z,10.62
2023-04-18T23:28:06.344Z,10.63
2023-04-18T23:30:36.951Z,10.61
2023-04-18T23:33:04.029Z,10.56
2023-04-18T23:35:31.122Z,10.55
2023-04-18T23:37:58.161Z,10.55
2023-04-18T23:40:25.367Z,10.49
2023-04-18T23:42:52.372Z,10.53
2023-04-18T23:45:19.498Z,10.47
2023-04-18T23:47:46.539Z,10.49
2023-04-18T23:50:13.593Z,10.49
2023-04-18T23:52:40.617Z,10.43
2023-04-18T23:55:08.149Z,10.39
2023-04-18T23:57:35.128Z,10.41
